Hauptseite
METAR-TAF:

METAR-TAF

Flughäfen :

Militärflugplatz Solenzara

Solenzara, Frankreich

Breite: 41-55N, Länge: 009-24E, Höhe: 8 m

Beobachtung

Neuester Wetterbericht von vor 39 Minuten, um 11:00 UTC
Wind 7 kt aus Ost, variierte zwischen Ost/Nordost und Süd/Südost
Temperatur 28°C
Luftfeuchtigkeit 70%
Luftdruck 1014 hPa
Sichtweite 10 km oder mehr
keine Wolken unter 1500 m und keine Kumulonimbus oder Gewitterwolken

METAR: LFKS 191100Z AUTO 10007KT 070V150 CAVOK 28/22 Q1014

Zeit: 13:39 (11:39 UTC)

Prognose

Neuester Wetterbericht von vor 3 Stunden und 39 Minuten, um 08:00 UTC
Gültige Prognose vom 19 um 09 UTC bis 20 um 09 UTC
Wind 10 kt aus Ost
Sichtweite 10 km oder mehr
keine Wolken unter 1500 m und keine Kumulonimbus oder Gewitterwolken
Übergehend zu
vom 19 um 18 UTC bis 19 um 19 UTC
Wind 5 kt aus West

TAF: LFKS 190800Z 1909/2009 10010KT CAVOK BECMG 1918/1919 28005KT

Wetterbeobachtungen und Prognosen von mehr als 4000 Flughäfen (METAR und TAF Bericht).

Die verfügbaren Stationen werden durch gelbe und rote Markierungen auf der Karte dargestellt.

Führen Sie die Maus auf sie, um den Namen der Station zu sehen.

Darauf klicken, um die Beobachtung von Wetterbeobachtungen und Prognosen zu sehen.

Um die Karte zu ändern : klicken Sie auf den grünen Tasten mit einem schwarzen Kreuz Zum Vergrößern, auf den grünen Button mit einem Gedankenstrich zu verkleinern, oder auf die grünen Pfeile für benachbarte Karten.


METAR-TAF: